createdAt,value
2023-04-06T00:00:38.694Z,25.43
2023-04-06T00:03:07.187Z,25.48
2023-04-06T00:05:35.766Z,25.53
2023-04-06T00:08:04.192Z,25.62
2023-04-06T00:10:32.732Z,25.68
2023-04-06T00:13:02.306Z,25.73
2023-04-06T00:15:30.761Z,25.81
2023-04-06T00:17:59.219Z,25.89
2023-04-06T00:20:27.665Z,25.96
2023-04-06T00:22:56.467Z,26.04
2023-04-06T00:25:24.941Z,26.11
2023-04-06T00:27:53.361Z,26.19
2023-04-06T00:30:21.988Z,26.28
2023-04-06T00:32:50.378Z,26.34
2023-04-06T00:35:18.951Z,26.41
2023-04-06T00:37:49.713Z,26.47
2023-04-06T00:40:18.430Z,26.53
2023-04-06T00:42:46.990Z,26.60
2023-04-06T00:45:15.394Z,26.67
2023-04-06T00:47:44.197Z,26.74
2023-04-06T00:50:12.621Z,26.80
2023-04-06T00:52:40.995Z,26.90
2023-04-06T00:55:09.854Z,26.95
2023-04-06T00:57:38.441Z,27.02
2023-04-06T01:00:07.531Z,27.07
2023-04-06T01:02:35.962Z,27.15
2023-04-06T01:05:04.880Z,27.20
2023-04-06T01:07:33.291Z,27.26
2023-04-06T01:10:01.881Z,27.32
2023-04-06T01:12:30.289Z,27.35
2023-04-06T01:14:58.848Z,27.40
2023-04-06T01:17:27.271Z,27.45
2023-04-06T01:19:55.917Z,27.50
2023-04-06T01:22:26.219Z,27.57
2023-04-06T01:24:54.648Z,27.64
2023-04-06T01:27:23.074Z,27.71
2023-04-06T01:29:51.463Z,27.78
2023-04-06T01:32:19.984Z,27.84
2023-04-06T01:34:48.675Z,27.91
2023-04-06T01:37:17.095Z,27.99
2023-04-06T01:39:46.580Z,28.07
2023-04-06T01:42:14.933Z,28.14
2023-04-06T01:44:43.371Z,28.23
2023-04-06T01:47:11.772Z,28.33
2023-04-06T01:49:40.118Z,28.40
2023-04-06T01:52:08.558Z,28.49
2023-04-06T01:54:36.987Z,28.58
2023-04-06T01:57:05.456Z,28.67
2023-04-06T01:59:33.901Z,28.74
2023-04-06T02:02:02.349Z,28.80
2023-04-06T02:04:30.766Z,28.87
2023-04-06T02:06:59.147Z,28.94
2023-04-06T02:09:27.624Z,29.02
2023-04-06T02:11:55.995Z,29.09
2023-04-06T02:14:28.150Z,29.16
2023-04-06T02:16:56.725Z,29.23
2023-04-06T02:19:25.226Z,29.31
2023-04-06T02:21:53.672Z,29.37
2023-04-06T02:24:22.367Z,29.45
2023-04-06T02:26:50.711Z,29.51
2023-04-06T02:29:19.032Z,29.59
2023-04-06T02:31:47.544Z,29.66
2023-04-06T02:34:19.511Z,29.74
2023-04-06T02:36:48.650Z,29.80
2023-04-06T02:39:17.614Z,29.89
2023-04-06T02:41:45.975Z,29.97
2023-04-06T02:44:14.318Z,30.03
2023-04-06T02:46:42.953Z,30.09
2023-04-06T02:49:11.437Z,30.17
2023-04-06T02:51:39.875Z,30.24
2023-04-06T02:54:08.250Z,30.31
2023-04-06T02:56:36.734Z,30.36
2023-04-06T02:59:05.176Z,30.44
2023-04-06T03:01:33.804Z,30.52
2023-04-06T03:04:02.646Z,30.61
2023-04-06T03:06:31.104Z,30.71
2023-04-06T03:08:59.544Z,30.81
2023-04-06T03:11:28.761Z,30.91
2023-04-06T03:13:58.873Z,31.00
2023-04-06T03:16:27.287Z,31.09
2023-04-06T03:18:55.639Z,31.17
2023-04-06T03:21:24.038Z,31.23
2023-04-06T03:23:52.996Z,31.29
2023-04-06T03:26:21.445Z,31.32
2023-04-06T03:28:49.877Z,31.39
2023-04-06T03:31:18.268Z,31.43
2023-04-06T03:33:46.949Z,31.48
2023-04-06T03:36:15.462Z,31.53
2023-04-06T03:38:43.890Z,31.59
2023-04-06T03:41:12.529Z,31.65
2023-04-06T03:43:40.910Z,31.72
2023-04-06T03:46:09.326Z,31.80
2023-04-06T03:48:38.297Z,31.89
2023-04-06T03:51:06.968Z,31.97
2023-04-06T03:53:35.381Z,32.05
2023-04-06T03:56:04.854Z,32.15
2023-04-06T03:58:33.802Z,32.25
2023-04-06T04:01:02.178Z,32.33
2023-04-06T04:03:30.644Z,32.38
2023-04-06T04:05:59.131Z,32.45
2023-04-06T04:08:27.577Z,32.50
2023-04-06T04:10:56.005Z,32.56
2023-04-06T04:13:24.422Z,32.61
2023-04-06T04:15:52.993Z,32.65
2023-04-06T04:18:21.820Z,32.69
2023-04-06T04:20:50.239Z,32.75
2023-04-06T04:23:18.611Z,32.83
2023-04-06T04:25:47.281Z,32.92
2023-04-06T04:28:15.727Z,33.00
2023-04-06T04:30:44.139Z,33.07
2023-04-06T04:33:12.574Z,33.16
2023-04-06T04:35:41.004Z,33.23
2023-04-06T04:38:09.389Z,33.30
2023-04-06T04:40:37.790Z,33.37
2023-04-06T04:43:06.317Z,33.45
2023-04-06T04:45:34.719Z,33.53
2023-04-06T04:48:03.288Z,33.60
2023-04-06T04:50:31.767Z,33.67
2023-04-06T04:53:00.375Z,33.74
2023-04-06T04:55:31.132Z,33.79
2023-04-06T04:57:59.569Z,33.84
2023-04-06T05:00:27.954Z,33.89
2023-04-06T05:02:56.512Z,33.93
2023-04-06T05:05:24.898Z,34.01
2023-04-06T05:07:53.345Z,34.08
2023-04-06T05:10:22.142Z,34.17
2023-04-06T05:12:50.564Z,34.24
2023-04-06T05:15:19.000Z,34.31
2023-04-06T05:17:47.497Z,34.36
2023-04-06T05:20:16.066Z,34.40
2023-04-06T05:22:44.437Z,34.42
2023-04-06T05:25:12.871Z,34.45
2023-04-06T05:27:41.869Z,34.48
2023-04-06T05:30:10.591Z,34.52
2023-04-06T05:32:39.082Z,34.56
2023-04-06T05:35:07.871Z,34.60
2023-04-06T05:37:36.323Z,34.65
2023-04-06T05:40:05.087Z,34.69
2023-04-06T05:42:41.384Z,34.77
2023-04-06T05:45:10.892Z,34.84
2023-04-06T05:47:39.840Z,34.88
2023-04-06T05:50:08.596Z,34.95
2023-04-06T05:52:36.967Z,35.00
2023-04-06T05:55:06.450Z,35.08
2023-04-06T05:57:34.831Z,35.13
2023-04-06T06:00:05.553Z,35.16
2023-04-06T06:02:34.160Z,35.18
2023-04-06T06:05:03.038Z,35.23
2023-04-06T06:07:31.565Z,35.28
2023-04-06T06:10:00.920Z,35.35
2023-04-06T06:12:29.363Z,35.42
2023-04-06T06:14:57.801Z,35.44
2023-04-06T06:17:26.284Z,35.47
2023-04-06T06:19:54.705Z,35.52
2023-04-06T06:22:23.050Z,35.55
2023-04-06T06:24:52.364Z,35.59
2023-04-06T06:27:20.694Z,35.61
2023-04-06T06:29:49.041Z,35.67
2023-04-06T06:32:17.450Z,35.69
2023-04-06T06:34:45.935Z,35.72
2023-04-06T06:37:14.345Z,35.75
2023-04-06T06:39:43.594Z,35.79
2023-04-06T06:42:13.455Z,35.81
2023-04-06T06:44:43.083Z,35.86
2023-04-06T06:47:11.550Z,35.88
2023-04-06T06:49:39.975Z,35.90
2023-04-06T06:52:08.347Z,35.92
2023-04-06T06:54:36.948Z,35.93
2023-04-06T06:57:05.383Z,35.96
2023-04-06T06:59:33.870Z,35.98
2023-04-06T07:02:02.437Z,36.00
2023-04-06T07:04:30.966Z,36.03
2023-04-06T07:06:59.409Z,36.05
2023-04-06T07:09:28.718Z,36.08
2023-04-06T07:11:58.743Z,36.10
2023-04-06T07:14:27.110Z,36.11
2023-04-06T07:16:55.528Z,36.10
2023-04-06T07:19:23.952Z,36.11
2023-04-06T07:21:52.402Z,36.10
2023-04-06T07:24:20.780Z,36.11
2023-04-06T07:26:49.214Z,36.10
2023-04-06T07:29:17.576Z,36.12
2023-04-06T07:31:46.276Z,36.12
2023-04-06T07:34:14.699Z,36.10
2023-04-06T07:36:43.186Z,36.09
2023-04-06T07:39:11.551Z,36.07
2023-04-06T07:41:40.401Z,36.05
2023-04-06T07:44:09.052Z,36.05
2023-04-06T07:46:38.404Z,36.04
2023-04-06T07:49:06.964Z,36.03
2023-04-06T07:51:37.642Z,36.01
2023-04-06T07:54:06.543Z,35.99
2023-04-06T07:56:35.068Z,35.97
2023-04-06T07:59:04.404Z,35.96
2023-04-06T08:01:32.894Z,35.96
2023-04-06T08:04:03.558Z,35.94
2023-04-06T08:06:32.204Z,35.94
2023-04-06T08:09:00.650Z,35.92
2023-04-06T08:11:29.383Z,35.89
2023-04-06T08:14:00.608Z,35.89
2023-04-06T08:16:29.062Z,35.86
2023-04-06T08:18:57.551Z,35.82
2023-04-06T08:21:25.989Z,35.80
2023-04-06T08:23:54.416Z,35.76
2023-04-06T08:26:22.870Z,35.71
2023-04-06T08:28:51.353Z,35.69
2023-04-06T08:31:19.787Z,35.65
2023-04-06T08:33:48.290Z,35.63
2023-04-06T08:36:17.396Z,35.58
2023-04-06T08:38:45.906Z,35.56
2023-04-06T08:41:15.935Z,35.52
2023-04-06T08:43:51.940Z,35.49
2023-04-06T08:46:20.656Z,35.46
2023-04-06T08:48:52.586Z,35.44
2023-04-06T08:51:21.520Z,35.40
2023-04-06T08:53:50.637Z,35.35
2023-04-06T08:56:19.718Z,35.32
2023-04-06T08:58:50.531Z,35.29
2023-04-06T09:01:22.904Z,35.26
2023-04-06T09:03:53.603Z,35.21
2023-04-06T09:06:22.748Z,35.16
2023-04-06T09:08:51.157Z,35.11
2023-04-06T09:11:19.533Z,35.07
2023-04-06T09:13:59.182Z,35.03
2023-04-06T09:16:27.917Z,34.97
2023-04-06T09:18:56.518Z,34.93
2023-04-06T09:21:26.122Z,34.89
2023-04-06T09:24:02.659Z,34.85
2023-04-06T09:26:31.607Z,34.80
2023-04-06T09:29:03.019Z,34.76
2023-04-06T09:31:36.636Z,34.73
2023-04-06T09:34:05.095Z,34.68
2023-04-06T09:36:43.212Z,34.64
2023-04-06T09:39:11.936Z,34.59
2023-04-06T09:41:41.367Z,34.56
2023-04-06T09:44:14.229Z,34.51
2023-04-06T09:46:58.928Z,34.46
2023-04-06T09:49:36.135Z,34.39
2023-04-06T09:52:06.597Z,34.34
2023-04-06T09:54:37.498Z,34.28
2023-04-06T09:57:15.188Z,34.24
2023-04-06T09:59:54.752Z,34.18
2023-04-06T10:02:34.989Z,34.15
2023-04-06T10:05:38.772Z,34.07
2023-04-06T10:08:14.027Z,34.02
2023-04-06T10:10:42.563Z,33.98
2023-04-06T10:13:13.493Z,33.93
2023-04-06T10:15:42.583Z,33.87
2023-04-06T10:18:11.597Z,33.82
2023-04-06T10:21:08.773Z,33.77
2023-04-06T10:23:47.357Z,33.69
2023-04-06T10:26:22.581Z,33.63
2023-04-06T10:28:52.445Z,33.57
2023-04-06T10:31:29.163Z,33.51
2023-04-06T10:34:02.622Z,33.43
2023-04-06T10:36:35.240Z,33.37
2023-04-06T10:39:08.482Z,33.31
2023-04-06T10:41:46.872Z,33.24
2023-04-06T10:44:26.411Z,33.15
2023-04-06T10:46:58.695Z,33.09
2023-04-06T10:49:30.242Z,33.00
2023-04-06T10:51:59.552Z,32.94
2023-04-06T10:54:30.213Z,32.88
2023-04-06T10:56:58.595Z,32.83
2023-04-06T10:59:27.749Z,32.76
2023-04-06T11:01:57.793Z,32.68
2023-04-06T11:04:27.964Z,32.64
2023-04-06T11:06:57.577Z,32.57
2023-04-06T11:09:31.314Z,32.50
2023-04-06T11:11:59.880Z,32.41
2023-04-06T11:14:28.468Z,32.36
2023-04-06T11:16:57.131Z,32.26
2023-04-06T11:19:25.680Z,32.19
2023-04-06T11:21:54.805Z,32.13
2023-04-06T11:24:25.020Z,32.05
2023-04-06T11:26:57.214Z,31.97
2023-04-06T11:29:28.332Z,31.91
2023-04-06T11:32:02.383Z,31.84
2023-04-06T11:34:33.145Z,31.79
2023-04-06T11:37:04.357Z,31.73
2023-04-06T11:39:32.850Z,31.66
2023-04-06T11:42:06.183Z,31.59
2023-04-06T11:44:50.533Z,31.52
2023-04-06T11:47:19.121Z,31.48
2023-04-06T11:49:47.546Z,31.41
2023-04-06T11:52:22.714Z,31.34
2023-04-06T11:54:52.572Z,31.28
2023-04-06T11:57:22.456Z,31.22
2023-04-06T11:59:50.980Z,31.17
2023-04-06T12:02:19.933Z,31.10
2023-04-06T12:04:48.649Z,31.03
2023-04-06T12:07:17.922Z,30.96
2023-04-06T12:09:46.368Z,30.89
2023-04-06T12:12:14.707Z,30.82
2023-04-06T12:14:43.174Z,30.74
2023-04-06T12:17:12.361Z,30.68
2023-04-06T12:19:41.435Z,30.62
2023-04-06T12:22:10.076Z,30.56
2023-04-06T12:24:38.797Z,30.52
2023-04-06T12:27:10.624Z,30.47
2023-04-06T12:29:40.311Z,30.42
2023-04-06T12:32:11.615Z,30.38
2023-04-06T12:34:40.558Z,30.33
2023-04-06T12:37:08.983Z,30.27
2023-04-06T12:39:37.505Z,30.22
2023-04-06T12:42:06.517Z,30.17
2023-04-06T12:44:34.971Z,30.12
2023-04-06T12:47:03.448Z,30.09
2023-04-06T12:49:32.136Z,30.06
2023-04-06T12:52:00.830Z,30.04
2023-04-06T12:54:30.021Z,30.00
2023-04-06T12:56:58.611Z,29.98
2023-04-06T12:59:27.081Z,29.96
2023-04-06T13:01:55.567Z,29.94
2023-04-06T13:04:23.984Z,29.90
2023-04-06T13:06:52.381Z,29.87
2023-04-06T13:09:20.755Z,29.83
2023-04-06T13:11:49.222Z,29.79
2023-04-06T13:14:18.079Z,29.77
2023-04-06T13:16:46.838Z,29.74
2023-04-06T13:19:15.290Z,29.72
2023-04-06T13:21:43.652Z,29.69
2023-04-06T13:24:12.241Z,29.65
2023-04-06T13:26:40.712Z,29.63
2023-04-06T13:29:09.165Z,29.61
2023-04-06T13:31:37.624Z,29.59
2023-04-06T13:34:06.310Z,29.56
2023-04-06T13:36:34.907Z,29.53
2023-04-06T13:39:03.344Z,29.51
2023-04-06T13:41:32.227Z,29.47
2023-04-06T13:44:00.573Z,29.44
2023-04-06T13:46:29.649Z,29.40
2023-04-06T13:48:58.017Z,29.37
2023-04-06T13:51:26.481Z,29.35
2023-04-06T13:53:55.595Z,29.31
2023-04-06T13:56:23.948Z,29.29
2023-04-06T13:58:52.373Z,29.25
2023-04-06T14:01:20.783Z,29.21
2023-04-06T14:03:51.570Z,29.18
2023-04-06T14:06:30.511Z,29.13
2023-04-06T14:09:01.003Z,29.10
2023-04-06T14:11:29.463Z,29.07
2023-04-06T14:13:58.506Z,29.06
2023-04-06T14:16:28.183Z,29.03
2023-04-06T14:18:57.128Z,29.00
2023-04-06T14:21:25.444Z,28.96
2023-04-06T14:23:55.228Z,28.92
2023-04-06T14:26:24.709Z,28.88
2023-04-06T14:28:53.813Z,28.86
2023-04-06T14:31:22.449Z,28.83
2023-04-06T14:33:50.959Z,28.79
2023-04-06T14:36:19.559Z,28.74
2023-04-06T14:38:50.665Z,28.68
2023-04-06T14:41:20.756Z,28.63
2023-04-06T14:43:49.643Z,28.59
2023-04-06T14:46:18.662Z,28.54
2023-04-06T14:48:48.187Z,28.50
2023-04-06T14:51:16.843Z,28.46
2023-04-06T14:53:45.689Z,28.44
2023-04-06T14:56:14.163Z,28.38
2023-04-06T14:58:42.834Z,28.34
2023-04-06T15:01:11.393Z,28.32
2023-04-06T15:03:39.811Z,28.30
2023-04-06T15:06:15.120Z,28.26
2023-04-06T15:08:45.115Z,28.24
2023-04-06T15:11:14.636Z,28.22
2023-04-06T15:13:44.307Z,28.20
2023-04-06T15:16:13.040Z,28.19
2023-04-06T15:18:41.454Z,28.17
2023-04-06T15:21:09.904Z,28.14
2023-04-06T15:23:38.285Z,28.12
2023-04-06T15:26:06.906Z,28.09
2023-04-06T15:28:35.254Z,28.07
2023-04-06T15:31:07.838Z,28.02
2023-04-06T15:33:36.409Z,28.00
2023-04-06T15:36:10.795Z,27.96
2023-04-06T15:38:42.407Z,27.93
2023-04-06T15:41:12.332Z,27.90
2023-04-06T15:43:41.627Z,27.87
2023-04-06T15:46:10.224Z,27.83
2023-04-06T15:48:38.640Z,27.80
2023-04-06T15:51:06.964Z,27.76
2023-04-06T15:53:36.275Z,27.74
2023-04-06T15:56:07.408Z,27.72
2023-04-06T15:58:35.865Z,27.72
2023-04-06T16:01:14.193Z,27.71
2023-04-06T16:03:43.321Z,27.71
2023-04-06T16:06:12.342Z,27.70
2023-04-06T16:08:42.382Z,27.72
2023-04-06T16:11:11.402Z,27.71
2023-04-06T16:13:40.440Z,27.72
2023-04-06T16:16:10.349Z,27.74
2023-04-06T16:18:38.976Z,27.74
2023-04-06T16:21:07.378Z,27.74
2023-04-06T16:23:36.389Z,27.72
2023-04-06T16:26:13.820Z,27.69
2023-04-06T16:28:42.803Z,27.66
2023-04-06T16:31:20.287Z,27.63
2023-04-06T16:33:50.078Z,27.59
2023-04-06T16:36:26.126Z,27.57
2023-04-06T16:38:55.335Z,27.54
2023-04-06T16:41:24.103Z,27.53
2023-04-06T16:43:52.525Z,27.52
2023-04-06T16:46:20.920Z,27.51
2023-04-06T16:48:49.280Z,27.47
2023-04-06T16:51:19.603Z,27.45
2023-04-06T16:53:48.975Z,27.42
2023-04-06T16:56:17.553Z,27.40
2023-04-06T16:58:48.867Z,27.37
2023-04-06T17:01:21.700Z,27.35
2023-04-06T17:03:50.371Z,27.34
2023-04-06T17:06:19.248Z,27.32
2023-04-06T17:08:49.121Z,27.32
2023-04-06T17:11:21.685Z,27.30
2023-04-06T17:13:54.051Z,27.28
2023-04-06T17:16:22.441Z,27.27
2023-04-06T17:18:51.256Z,27.26
2023-04-06T17:21:21.729Z,27.24
2023-04-06T17:23:50.131Z,27.24
2023-04-06T17:26:18.512Z,27.22
2023-04-06T17:28:47.027Z,27.22
2023-04-06T17:31:15.778Z,27.20
2023-04-06T17:33:44.543Z,27.20
2023-04-06T17:36:13.276Z,27.19
2023-04-06T17:38:44.769Z,27.18
2023-04-06T17:41:14.796Z,27.15
2023-04-06T17:43:43.925Z,27.13
2023-04-06T17:46:12.473Z,27.11
2023-04-06T17:48:40.855Z,27.08
2023-04-06T17:51:09.264Z,27.09
2023-04-06T17:53:37.724Z,27.07
2023-04-06T17:56:06.620Z,27.06
2023-04-06T17:58:36.271Z,27.05
2023-04-06T18:01:15.416Z,27.04
2023-04-06T18:03:43.829Z,27.03
2023-04-06T18:06:13.555Z,27.00
2023-04-06T18:08:42.660Z,26.99
2023-04-06T18:11:19.326Z,26.96
2023-04-06T18:13:47.728Z,26.95
2023-04-06T18:16:18.229Z,26.93
2023-04-06T18:18:46.704Z,26.92
2023-04-06T18:21:15.394Z,26.91
2023-04-06T18:23:43.828Z,26.90
2023-04-06T18:26:19.078Z,26.87
2023-04-06T18:28:48.993Z,26.86
2023-04-06T18:31:17.569Z,26.83
2023-04-06T18:33:46.251Z,26.82
2023-04-06T18:36:15.409Z,26.82
2023-04-06T18:38:45.726Z,26.80
2023-04-06T18:41:14.088Z,26.80
2023-04-06T18:43:43.014Z,26.80
2023-04-06T18:46:15.861Z,26.79
2023-04-06T18:48:44.476Z,26.79
2023-04-06T18:51:12.960Z,26.79
2023-04-06T18:53:41.614Z,26.79
2023-04-06T18:56:18.505Z,26.81
2023-04-06T18:58:49.307Z,26.81
2023-04-06T19:01:32.676Z,26.82
2023-04-06T19:04:01.881Z,26.82
2023-04-06T19:06:30.532Z,26.82
2023-04-06T19:08:59.767Z,26.80
2023-04-06T19:11:28.301Z,26.80
2023-04-06T19:13:58.011Z,26.79
2023-04-06T19:16:30.191Z,26.78
2023-04-06T19:19:00.702Z,26.77
2023-04-06T19:21:29.104Z,26.76
2023-04-06T19:23:58.232Z,26.76
2023-04-06T19:26:28.916Z,26.75
2023-04-06T19:28:57.354Z,26.74
2023-04-06T19:31:28.148Z,26.72
2023-04-06T19:33:56.699Z,26.70
2023-04-06T19:36:25.178Z,26.68
2023-04-06T19:38:53.579Z,26.69
2023-04-06T19:41:22.603Z,26.69
2023-04-06T19:43:50.982Z,26.68
2023-04-06T19:46:19.373Z,26.68
2023-04-06T19:48:47.740Z,26.68
2023-04-06T19:51:16.445Z,26.67
2023-04-06T19:53:44.860Z,26.65
2023-04-06T19:56:13.280Z,26.64
2023-04-06T19:58:41.924Z,26.62
2023-04-06T20:01:10.446Z,26.61
2023-04-06T20:03:38.976Z,26.59
2023-04-06T20:06:07.774Z,26.59
2023-04-06T20:08:36.328Z,26.56
2023-04-06T20:11:11.427Z,26.57
2023-04-06T20:13:39.776Z,26.57
2023-04-06T20:16:08.635Z,26.55
2023-04-06T20:18:38.013Z,26.56
2023-04-06T20:21:06.412Z,26.54
2023-04-06T20:23:38.496Z,26.54
2023-04-06T20:26:10.767Z,26.55
2023-04-06T20:28:40.455Z,26.54
2023-04-06T20:31:09.000Z,26.54
2023-04-06T20:33:37.930Z,26.53
2023-04-06T20:36:06.399Z,26.52
2023-04-06T20:38:35.005Z,26.51
2023-04-06T20:41:03.592Z,26.49
2023-04-06T20:43:32.514Z,26.48
2023-04-06T20:46:03.055Z,26.46
2023-04-06T20:48:34.372Z,26.44
2023-04-06T20:51:04.479Z,26.43
2023-04-06T20:53:33.254Z,26.42
2023-04-06T20:56:03.859Z,26.43
2023-04-06T20:58:32.301Z,26.40
2023-04-06T21:01:00.650Z,26.39
2023-04-06T21:03:29.164Z,26.37
2023-04-06T21:05:59.992Z,26.37
2023-04-06T21:08:28.315Z,26.38
2023-04-06T21:10:56.935Z,26.36
2023-04-06T21:13:25.332Z,26.35
2023-04-06T21:15:53.758Z,26.34
2023-04-06T21:18:23.434Z,26.32
2023-04-06T21:20:51.998Z,26.35
2023-04-06T21:23:20.450Z,26.33
2023-04-06T21:25:48.915Z,26.33
2023-04-06T21:28:17.265Z,26.32
2023-04-06T21:30:45.796Z,26.30
2023-04-06T21:33:14.257Z,26.28
2023-04-06T21:35:43.221Z,26.25
2023-04-06T21:38:11.801Z,26.23
2023-04-06T21:40:40.794Z,26.19
2023-04-06T21:43:09.142Z,26.18
2023-04-06T21:45:37.806Z,26.17
2023-04-06T21:48:06.625Z,26.16
2023-04-06T21:50:35.106Z,26.15
2023-04-06T21:53:03.515Z,26.15
2023-04-06T21:55:34.016Z,26.14
2023-04-06T21:58:02.668Z,26.13
2023-04-06T22:00:31.075Z,26.11
2023-04-06T22:02:59.746Z,26.09
2023-04-06T22:05:28.221Z,26.08
2023-04-06T22:07:58.123Z,26.06
2023-04-06T22:10:26.727Z,26.05
2023-04-06T22:12:55.731Z,26.04
2023-04-06T22:15:24.172Z,26.05
2023-04-06T22:17:52.622Z,26.03
2023-04-06T22:20:21.178Z,26.03
2023-04-06T22:22:49.633Z,26.04
2023-04-06T22:25:18.041Z,26.02
2023-04-06T22:27:46.646Z,26.01
2023-04-06T22:30:15.143Z,26.00
2023-04-06T22:32:43.573Z,26.00
2023-04-06T22:35:12.067Z,26.00
2023-04-06T22:37:44.142Z,25.99
2023-04-06T22:40:13.152Z,25.97
2023-04-06T22:42:41.749Z,25.94
2023-04-06T22:45:10.810Z,25.94
2023-04-06T22:47:39.432Z,25.94
2023-04-06T22:50:09.097Z,25.92
2023-04-06T22:52:37.547Z,25.90
2023-04-06T22:55:06.526Z,25.92
2023-04-06T22:57:34.885Z,25.90
2023-04-06T23:00:06.451Z,25.90
2023-04-06T23:02:35.168Z,25.90
2023-04-06T23:05:03.696Z,25.90
2023-04-06T23:07:33.574Z,25.90
2023-04-06T23:10:02.126Z,25.88
2023-04-06T23:12:30.677Z,25.89
2023-04-06T23:14:59.110Z,25.90
2023-04-06T23:17:28.927Z,25.88
2023-04-06T23:19:57.324Z,25.87
2023-04-06T23:22:25.633Z,25.85
2023-04-06T23:24:54.042Z,25.84
2023-04-06T23:27:22.359Z,25.85
2023-04-06T23:29:50.679Z,25.86
2023-04-06T23:32:19.061Z,25.87
2023-04-06T23:34:47.580Z,25.90
2023-04-06T23:37:16.112Z,25.91
2023-04-06T23:39:45.712Z,25.95
2023-04-06T23:42:14.098Z,25.97
2023-04-06T23:44:42.426Z,26.00
2023-04-06T23:47:10.931Z,26.01
2023-04-06T23:49:39.385Z,26.04
2023-04-06T23:52:08.057Z,26.08
2023-04-06T23:54:36.690Z,26.11
2023-04-06T23:57:05.062Z,26.14
2023-04-06T23:59:33.441Z,26.19
